Terminal Aerodrome Forecast
Issued by NWS Bismarck, ND

Home | Current Version | Previous Version | Text Only | Print | Product List | Glossary On
Versions: 1 2 3 4 5 6 7 8 9 10 11 12 13 14 15 16 17 18
378
FTUS43 KBIS 291726
TAFISN
TAF
KISN 291726Z 2918/3018 32018G27KT P6SM FEW050 SCT070
     FM300200 34010KT P6SM FEW200
     FM300400 34006KT P6SM SKC
     FM301400 34010KT P6SM SKC=

USA.gov is the U.S. government's official web portal to all federal, state and local government web resources and services.